Time;durP1;ratioP1;P1;durP2;ratioP2;P2;SDS_P1;SDS_P2;PMS_P1;PMS_P2;Temp;Humidity;BMP_temperature;BMP_pressure;BME280_temperature;BME280_humidity;BME280_pressure;Samples;Min_cycle;Max_cycle;Signal;HPM_P1;HPM_P2
2021/12/30 00:01:50;;;;;;;1.80;1.50;;;;;;;;;;5000278;28;20208;-86
2021/12/30 00:04:19;;;;;;;1.75;1.65;;;;;;;;;;4996717;28;20188;-86
2021/12/30 00:06:48;;;;;;;1.60;1.50;;;;;;;;;;4996501;28;20295;-86
2021/12/30 00:09:18;;;;;;;1.50;1.40;;;;;;;;;;4995372;28;20661;-87
2021/12/30 00:11:46;;;;;;;0.90;0.90;;;;;;;;;;4995435;28;20192;-86
2021/12/30 00:14:15;;;;;;;1.60;1.50;;;;;;;;;;4995353;28;20226;-86
2021/12/30 00:16:43;;;;;;;1.45;1.42;;;;;;;;;;4994440;28;20223;-87
2021/12/30 00:19:12;;;;;;;0.90;0.90;;;;;;;;;;4994862;28;20202;-84
2021/12/30 00:21:40;;;;;;;1.27;1.15;;;;;;;;;;4994669;28;20180;-85
2021/12/30 00:24:09;;;;;;;1.42;1.33;;;;;;;;;;4994697;28;20195;-87
2021/12/30 00:26:37;;;;;;;1.20;1.10;;;;;;;;;;4993964;28;20227;-85
2021/12/30 00:29:05;;;;;;;1.00;1.00;;;;;;;;;;4994700;28;20196;-84
2021/12/30 00:31:35;;;;;;;2.65;1.85;;;;;;;;;;4994542;28;20598;-84
2021/12/30 00:34:03;;;;;;;1.42;1.33;;;;;;;;;;4994279;28;20227;-84
2021/12/30 00:36:31;;;;;;;1.20;1.10;;;;;;;;;;4994679;28;20716;-85
2021/12/30 00:38:59;;;;;;;1.55;1.35;;;;;;;;;;4995302;28;20200;-84
2021/12/30 00:41:27;;;;;;;1.40;1.30;;;;;;;;;;4994749;28;20215;-84
2021/12/30 00:43:55;;;;;;;1.15;1.15;;;;;;;;;;4994734;28;20199;-85
2021/12/30 00:46:23;;;;;;;1.00;1.00;;;;;;;;;;4994478;28;20231;-85
2021/12/30 00:48:53;;;;;;;1.58;1.05;;;;;;;;;;4994998;28;20252;-85
2021/12/30 00:51:21;;;;;;;1.73;1.60;;;;;;;;;;4994638;28;20199;-84
2021/12/30 00:53:49;;;;;;;1.60;1.50;;;;;;;;;;4994978;28;20204;-85
2021/12/30 00:56:19;;;;;;;1.73;1.63;;;;;;;;;;4995462;28;20225;-85
2021/12/30 00:58:52;;;;;;;1.73;1.63;;;;;;;;;;4995096;28;20662;-85
2021/12/30 01:01:19;;;;;;;1.55;1.52;;;;;;;;;;4995424;28;20275;-85
2021/12/30 01:03:47;;;;;;;1.42;1.33;;;;;;;;;;4994939;28;20188;-85
2021/12/30 01:06:18;;;;;;;1.52;1.42;;;;;;;;;;4994873;28;20223;-85
2021/12/30 01:08:46;;;;;;;1.20;1.10;;;;;;;;;;4995079;28;20195;-85
2021/12/30 01:11:14;;;;;;;3.08;1.70;;;;;;;;;;4994481;28;20207;-85
2021/12/30 01:13:45;;;;;;;1.48;1.38;;;;;;;;;;4994545;28;20230;-84
2021/12/30 01:16:19;;;;;;;1.75;1.38;;;;;;;;;;4994484;28;20255;-86
2021/12/30 01:19:00;;;;;;;1.88;1.75;;;;;;;;;;4995117;28;20188;-85
2021/12/30 01:21:34;;;;;;;3.95;2.25;;;;;;;;;;4994912;28;20196;-84
2021/12/30 01:24:05;;;;;;;1.70;1.60;;;;;;;;;;4994751;28;20556;-84
2021/12/30 01:26:32;;;;;;;2.38;2.17;;;;;;;;;;4995418;28;20228;-85
2021/12/30 01:29:00;;;;;;;1.73;1.63;;;;;;;;;;4995374;28;20226;-85
2021/12/30 01:31:28;;;;;;;2.40;1.85;;;;;;;;;;4996561;28;20188;-84
2021/12/30 01:33:55;;;;;;;2.20;2.00;;;;;;;;;;4996164;28;20240;-84
2021/12/30 01:36:26;;;;;;;4.47;2.65;;;;;;;;;;4995924;28;20717;-84
2021/12/30 01:38:55;;;;;;;2.55;2.20;;;;;;;;;;4996842;28;20210;-85
2021/12/30 01:41:23;;;;;;;3.35;2.92;;;;;;;;;;4999804;28;20214;-83
2021/12/30 01:43:51;;;;;;;3.10;2.88;;;;;;;;;;5000647;28;20200;-84
2021/12/30 01:46:19;;;;;;;3.30;3.03;;;;;;;;;;5000242;28;20287;-84
2021/12/30 01:48:46;;;;;;;2.03;1.92;;;;;;;;;;5000891;28;20559;-85
2021/12/30 01:51:15;;;;;;;3.20;2.70;;;;;;;;;;5000200;28;20211;-84
2021/12/30 01:53:43;;;;;;;4.00;2.95;;;;;;;;;;5000584;28;20594;-83
2021/12/30 01:56:12;;;;;;;3.67;2.75;;;;;;;;;;5000217;28;20310;-85
2021/12/30 01:58:39;;;;;;;3.10;2.90;;;;;;;;;;4999420;28;20207;-85
2021/12/30 02:01:07;;;;;;;2.92;2.60;;;;;;;;;;4999703;28;20192;-85
2021/12/30 02:03:34;;;;;;;3.95;3.10;;;;;;;;;;4998165;28;20204;-85
2021/12/30 02:06:03;;;;;;;2.80;2.55;;;;;;;;;;4997011;28;20752;-85
2021/12/30 02:08:30;;;;;;;5.35;4.05;;;;;;;;;;4997116;28;20191;-85
2021/12/30 02:10:58;;;;;;;3.97;3.42;;;;;;;;;;4996679;28;20290;-84
2021/12/30 02:13:27;;;;;;;4.40;4.10;;;;;;;;;;4997214;28;20202;-85
2021/12/30 02:16:00;;;;;;;8.65;3.55;;;;;;;;;;4997136;28;20237;-85
2021/12/30 02:18:27;;;;;;;3.00;2.78;;;;;;;;;;4997101;28;20628;-85
2021/12/30 02:20:58;;;;;;;4.32;2.88;;;;;;;;;;4997353;28;20191;-87
2021/12/30 02:23:28;;;;;;;3.60;3.25;;;;;;;;;;4997357;28;20250;-85
2021/12/30 02:25:59;;;;;;;5.68;3.88;;;;;;;;;;4996930;28;20216;-84
2021/12/30 02:28:30;;;;;;;3.97;3.13;;;;;;;;;;4997754;28;20565;-85
2021/12/30 02:31:00;;;;;;;2.78;2.55;;;;;;;;;;4997205;28;20585;-84
2021/12/30 02:33:28;;;;;;;2.85;2.42;;;;;;;;;;4997028;28;20238;-85
2021/12/30 02:35:57;;;;;;;4.43;3.00;;;;;;;;;;4997081;28;20671;-84
2021/12/30 02:38:26;;;;;;;6.38;4.07;;;;;;;;;;4996772;28;20183;-85
2021/12/30 02:40:57;;;;;;;3.20;2.90;;;;;;;;;;4996685;28;20204;-85
2021/12/30 02:43:27;;;;;;;3.60;3.17;;;;;;;;;;4996880;28;20184;-84
2021/12/30 02:45:57;;;;;;;5.03;3.92;;;;;;;;;;4996569;28;20230;-84
2021/12/30 02:48:27;;;;;;;3.47;2.92;;;;;;;;;;4997849;28;20550;-85
2021/12/30 02:50:59;;;;;;;4.40;3.13;;;;;;;;;;4998145;28;20211;-84
2021/12/30 02:53:27;;;;;;;3.67;2.25;;;;;;;;;;4999584;28;20204;-85
2021/12/30 02:55:55;;;;;;;3.05;2.15;;;;;;;;;;4999943;28;20238;-84
2021/12/30 02:58:24;;;;;;;5.38;3.45;;;;;;;;;;5000380;28;20196;-84
2021/12/30 03:00:56;;;;;;;3.63;2.65;;;;;;;;;;4999646;28;20199;-84
2021/12/30 03:03:25;;;;;;;4.15;2.67;;;;;;;;;;4999034;28;20188;-85
2021/12/30 03:05:59;;;;;;;2.08;1.60;;;;;;;;;;4998345;28;20230;-84
2021/12/30 03:08:27;;;;;;;2.42;1.73;;;;;;;;;;4998723;28;20192;-84
2021/12/30 03:10:55;;;;;;;2.25;1.95;;;;;;;;;;5000027;28;20661;-83
2021/12/30 03:13:30;;;;;;;3.22;2.10;;;;;;;;;;4999694;28;20191;-84
2021/12/30 03:16:02;;;;;;;1.90;1.80;;;;;;;;;;4998417;28;20219;-84
2021/12/30 03:18:30;;;;;;;2.72;2.33;;;;;;;;;;4998927;28;20199;-85
2021/12/30 03:20:59;;;;;;;1.65;1.55;;;;;;;;;;4999824;28;20180;-84
2021/12/30 03:23:26;;;;;;;1.90;1.80;;;;;;;;;;4999477;28;20200;-84
2021/12/30 03:25:54;;;;;;;2.03;1.92;;;;;;;;;;4998490;28;20234;-84
2021/12/30 03:28:22;;;;;;;1.70;1.60;;;;;;;;;;4999690;28;20214;-83
2021/12/30 03:30:51;;;;;;;1.95;1.85;;;;;;;;;;4999162;28;20577;-84
2021/12/30 03:33:20;;;;;;;2.55;2.35;;;;;;;;;;4998547;28;20258;-84
2021/12/30 03:35:48;;;;;;;2.10;2.00;;;;;;;;;;4999625;28;20232;-84
2021/12/30 03:38:17;;;;;;;3.15;2.58;;;;;;;;;;4998841;28;20225;-84
2021/12/30 03:40:45;;;;;;;5.30;3.17;;;;;;;;;;4998909;28;20229;-84
2021/12/30 03:43:12;;;;;;;2.10;1.92;;;;;;;;;;4998549;28;20185;-84
2021/12/30 03:45:40;;;;;;;2.85;2.40;;;;;;;;;;4998179;28;20207;-83
2021/12/30 03:48:07;;;;;;;3.28;2.30;;;;;;;;;;4998768;28;20192;-85
2021/12/30 03:50:42;;;;;;;2.83;2.17;;;;;;;;;;4998461;28;20188;-84
2021/12/30 03:53:10;;;;;;;2.95;2.75;;;;;;;;;;4998712;28;20191;-84
2021/12/30 03:55:39;;;;;;;2.17;1.92;;;;;;;;;;4998273;28;20215;-85
2021/12/30 03:58:07;;;;;;;2.08;1.88;;;;;;;;;;4998108;28;20205;-84
2021/12/30 04:00:38;;;;;;;1.70;1.60;;;;;;;;;;4998273;28;20203;-84
2021/12/30 04:03:06;;;;;;;2.17;1.95;;;;;;;;;;4997878;28;20224;-84
2021/12/30 04:05:33;;;;;;;2.83;1.90;;;;;;;;;;4999251;28;20203;-83
2021/12/30 04:08:01;;;;;;;2.00;1.73;;;;;;;;;;4998831;28;20200;-84
2021/12/30 04:10:28;;;;;;;1.67;1.55;;;;;;;;;;4998751;28;20184;-83
2021/12/30 04:12:57;;;;;;;2.97;2.00;;;;;;;;;;4999594;28;20188;-84
2021/12/30 04:15:25;;;;;;;3.45;2.35;;;;;;;;;;4999673;28;20239;-84
2021/12/30 04:17:52;;;;;;;2.58;1.48;;;;;;;;;;4999498;28;20234;-84
2021/12/30 04:20:21;;;;;;;2.45;2.28;;;;;;;;;;4998933;28;20196;-84
2021/12/30 04:22:48;;;;;;;1.85;1.75;;;;;;;;;;4998078;28;20549;-84
2021/12/30 04:25:18;;;;;;;1.95;1.85;;;;;;;;;;4998757;28;20210;-85
2021/12/30 04:27:46;;;;;;;1.90;1.60;;;;;;;;;;4998748;28;20225;-84
2021/12/30 04:30:17;;;;;;;1.77;1.67;;;;;;;;;;4999675;28;20200;-84
2021/12/30 04:32:45;;;;;;;3.05;2.10;;;;;;;;;;4998849;28;20231;-84
2021/12/30 04:35:13;;;;;;;2.00;1.60;;;;;;;;;;4999983;28;20229;-84
2021/12/30 04:37:41;;;;;;;2.65;2.00;;;;;;;;;;4998476;28;20212;-83
2021/12/30 04:40:11;;;;;;;1.45;1.35;;;;;;;;;;4999373;28;20200;-84
2021/12/30 04:42:39;;;;;;;1.40;1.30;;;;;;;;;;4998025;28;20287;-85
2021/12/30 04:45:08;;;;;;;1.85;1.42;;;;;;;;;;4998460;28;20564;-85
2021/12/30 04:47:38;;;;;;;1.45;1.35;;;;;;;;;;4998425;28;20223;-84
2021/12/30 04:50:08;;;;;;;4.63;2.53;;;;;;;;;;4997626;28;20696;-84
2021/12/30 04:52:35;;;;;;;1.83;1.73;;;;;;;;;;5015780;28;20642;-84
2021/12/30 06:05:56;;;;;;;3.33;1.98;;;;;;;;;;4943989;29;20328;-83
2021/12/30 06:08:24;;;;;;;2.47;2.03;;;;;;;;;;4959142;28;20201;-83
2021/12/30 06:10:54;;;;;;;4.53;2.92;;;;;;;;;;4958496;29;20201;-83
2021/12/30 06:13:22;;;;;;;3.10;2.10;;;;;;;;;;4961271;29;20189;-83
2021/12/30 06:54:41;;;;;;;3.03;1.67;;;;;;;;;;4975824;28;20232;-84
2021/12/30 06:57:11;;;;;;;1.58;1.48;;;;;;;;;;4991054;28;20601;-83
2021/12/30 06:59:39;;;;;;;2.08;1.27;;;;;;;;;;4997659;28;20198;-83
2021/12/30 07:02:08;;;;;;;3.17;1.50;;;;;;;;;;4997630;28;20218;-83
2021/12/30 07:04:36;;;;;;;1.42;1.33;;;;;;;;;;4997635;28;20207;-84
2021/12/30 07:07:04;;;;;;;2.25;1.50;;;;;;;;;;4997414;28;20220;-83
2021/12/30 07:09:31;;;;;;;2.10;1.92;;;;;;;;;;4997028;28;20207;-83
2021/12/30 07:12:00;;;;;;;2.38;1.60;;;;;;;;;;4998027;28;20188;-82
2021/12/30 07:14:29;;;;;;;2.40;1.80;;;;;;;;;;4996929;28;20206;-83
2021/12/30 07:16:56;;;;;;;2.63;1.92;;;;;;;;;;4997749;28;20291;-83
2021/12/30 07:19:24;;;;;;;1.83;1.35;;;;;;;;;;4985770;28;20571;-83
2021/12/30 07:21:52;;;;;;;1.35;1.20;;;;;;;;;;4996883;28;20203;-84
2021/12/30 07:24:20;;;;;;;1.25;1.15;;;;;;;;;;4997923;28;20544;-84
2021/12/30 07:26:48;;;;;;;1.70;0.98;;;;;;;;;;4979078;28;20227;-84
2021/12/30 07:29:17;;;;;;;1.42;1.20;;;;;;;;;;5014546;28;20195;-84
2021/12/30 07:31:44;;;;;;;1.52;1.40;;;;;;;;;;5017772;28;20199;-86
2021/12/30 07:34:13;;;;;;;1.23;1.13;;;;;;;;;;5011725;28;20215;-83
2021/12/30 07:36:40;;;;;;;1.63;1.52;;;;;;;;;;4997121;28;20228;-84
2021/12/30 07:39:08;;;;;;;1.40;1.20;;;;;;;;;;4998110;28;20192;-82
2021/12/30 07:41:35;;;;;;;2.33;1.40;;;;;;;;;;4997502;28;20749;-83
2021/12/30 07:44:03;;;;;;;1.30;1.20;;;;;;;;;;4990226;28;20191;-84
2021/12/30 07:46:32;;;;;;;2.45;1.02;;;;;;;;;;4997951;28;20224;-84
2021/12/30 07:48:59;;;;;;;1.67;1.42;;;;;;;;;;4997746;28;20202;-83
2021/12/30 07:51:28;;;;;;;1.95;1.25;;;;;;;;;;4998133;28;20218;-84
2021/12/30 07:53:55;;;;;;;1.35;1.10;;;;;;;;;;4997789;28;20605;-84
2021/12/30 07:56:23;;;;;;;1.45;1.30;;;;;;;;;;4996642;28;20223;-84
2021/12/30 07:58:50;;;;;;;1.17;1.17;;;;;;;;;;4996026;28;20196;-84
2021/12/30 08:01:18;;;;;;;0.80;0.80;;;;;;;;;;4997081;28;20195;-84
2021/12/30 08:03:47;;;;;;;2.65;1.10;;;;;;;;;;4997724;28;20199;-84
2021/12/30 08:06:14;;;;;;;2.25;1.38;;;;;;;;;;4997417;28;20228;-84
2021/12/30 08:08:42;;;;;;;1.30;1.13;;;;;;;;;;4997547;28;20204;-83
2021/12/30 08:11:09;;;;;;;1.08;1.08;;;;;;;;;;4982218;28;20581;-84
2021/12/30 08:13:37;;;;;;;1.30;1.25;;;;;;;;;;4997553;28;20243;-84
2021/12/30 08:16:05;;;;;;;0.90;0.85;;;;;;;;;;4997536;28;20227;-84
2021/12/30 08:18:33;;;;;;;0.52;0.52;;;;;;;;;;4997823;28;20218;-84
2021/12/30 08:21:02;;;;;;;0.73;0.73;;;;;;;;;;4997431;28;20230;-84
2021/12/30 08:23:29;;;;;;;0.57;0.57;;;;;;;;;;4997616;28;20192;-85
2021/12/30 08:25:57;;;;;;;0.60;0.60;;;;;;;;;;4995797;28;20257;-84
2021/12/30 08:28:25;;;;;;;1.58;0.80;;;;;;;;;;4995183;28;20199;-86
2021/12/30 08:30:52;;;;;;;0.70;0.60;;;;;;;;;;4994451;28;20196;-85
2021/12/30 08:33:20;;;;;;;0.40;0.40;;;;;;;;;;4995255;28;20192;-85
2021/12/30 08:35:48;;;;;;;0.40;0.40;;;;;;;;;;4986730;28;20200;-86
2021/12/30 08:38:17;;;;;;;1.75;0.50;;;;;;;;;;4991609;28;20686;-86
2021/12/30 08:40:47;;;;;;;0.68;0.68;;;;;;;;;;4975039;28;20345;-84
2021/12/30 08:43:15;;;;;;;0.50;0.50;;;;;;;;;;4996414;28;20651;-84
2021/12/30 08:45:43;;;;;;;0.43;0.43;;;;;;;;;;4997638;28;20206;-84
2021/12/30 08:48:10;;;;;;;0.50;0.50;;;;;;;;;;4998663;28;20646;-84
2021/12/30 08:50:39;;;;;;;0.50;0.50;;;;;;;;;;5001783;28;20204;-84
2021/12/30 08:53:08;;;;;;;0.50;0.50;;;;;;;;;;5000179;28;20234;-83
2021/12/30 08:55:37;;;;;;;0.60;0.60;;;;;;;;;;5000969;28;20601;-83
2021/12/30 08:58:05;;;;;;;0.77;0.40;;;;;;;;;;5001014;28;20243;-84
2021/12/30 09:00:38;;;;;;;0.95;0.60;;;;;;;;;;5000674;28;20230;-85
2021/12/30 09:03:06;;;;;;;0.40;0.40;;;;;;;;;;5000717;28;20215;-83
2021/12/30 09:05:35;;;;;;;0.65;0.65;;;;;;;;;;5000916;28;20199;-83
2021/12/30 09:08:03;;;;;;;0.52;0.52;;;;;;;;;;5001660;28;20198;-83
2021/12/30 09:10:35;;;;;;;0.40;0.40;;;;;;;;;;5001222;28;20204;-84
2021/12/30 09:13:04;;;;;;;0.43;0.43;;;;;;;;;;5000306;28;20227;-83
2021/12/30 09:15:31;;;;;;;0.60;0.60;;;;;;;;;;5000108;28;20203;-83
2021/12/30 09:17:59;;;;;;;0.38;0.38;;;;;;;;;;5000492;28;20211;-83
2021/12/30 09:20:27;;;;;;;0.57;0.57;;;;;;;;;;5000109;28;20199;-83
2021/12/30 09:22:56;;;;;;;0.47;0.47;;;;;;;;;;4999506;28;20188;-84
2021/12/30 09:25:25;;;;;;;0.38;0.38;;;;;;;;;;5000909;28;20194;-83
2021/12/30 09:27:55;;;;;;;0.60;0.60;;;;;;;;;;4999188;28;20218;-84
2021/12/30 09:30:26;;;;;;;1.52;0.52;;;;;;;;;;4999749;28;20202;-83
2021/12/30 09:32:56;;;;;;;0.30;0.30;;;;;;;;;;4999930;28;20204;-83
2021/12/30 09:35:25;;;;;;;0.40;0.40;;;;;;;;;;5000385;28;20580;-84
2021/12/30 09:37:53;;;;;;;0.50;0.50;;;;;;;;;;4999871;28;20230;-84
2021/12/30 09:40:21;;;;;;;0.50;0.50;;;;;;;;;;4999948;28;20176;-84
2021/12/30 09:42:55;;;;;;;0.30;0.30;;;;;;;;;;4999884;28;20199;-84
2021/12/30 09:45:23;;;;;;;0.32;0.32;;;;;;;;;;5000258;28;20235;-83
2021/12/30 09:47:53;;;;;;;0.30;0.30;;;;;;;;;;4998225;28;20270;-83
2021/12/30 09:50:27;;;;;;;1.10;0.60;;;;;;;;;;5000143;28;20188;-82
2021/12/30 09:52:56;;;;;;;0.50;0.50;;;;;;;;;;4998970;28;20223;-83
2021/12/30 09:55:25;;;;;;;0.50;0.50;;;;;;;;;;4998846;28;20196;-84
2021/12/30 09:57:53;;;;;;;0.50;0.45;;;;;;;;;;4999934;28;20227;-84
2021/12/30 10:00:22;;;;;;;0.45;0.45;;;;;;;;;;4998189;28;20188;-84
2021/12/30 10:02:50;;;;;;;0.88;0.55;;;;;;;;;;4991448;28;20203;-84
2021/12/30 10:05:21;;;;;;;0.40;0.40;;;;;;;;;;4986926;28;20639;-83
2021/12/30 10:07:49;;;;;;;0.30;0.30;;;;;;;;;;4992409;28;20698;-84
2021/12/30 10:10:31;;;;;;;0.35;0.35;;;;;;;;;;4979612;28;20240;-84
2021/12/30 10:13:00;;;;;;;0.30;0.30;;;;;;;;;;4979691;28;20212;-85
2021/12/30 10:15:40;;;;;;;0.30;0.30;;;;;;;;;;4979612;28;20196;-82
2021/12/30 10:18:08;;;;;;;0.40;0.40;;;;;;;;;;4983870;28;20222;-83
2021/12/30 10:20:39;;;;;;;0.50;0.50;;;;;;;;;;4994464;28;20188;-84
2021/12/30 10:23:49;;;;;;;0.50;0.50;;;;;;;;;;4999518;28;20192;-83
2021/12/30 10:26:16;;;;;;;0.40;0.40;;;;;;;;;;4999810;28;20219;-84
2021/12/30 10:28:44;;;;;;;0.50;0.50;;;;;;;;;;4999811;28;20207;-84
2021/12/30 10:31:23;;;;;;;0.50;0.50;;;;;;;;;;4999377;28;20196;-85
2021/12/30 10:33:55;;;;;;;0.40;0.40;;;;;;;;;;4999014;28;20646;-85
2021/12/30 10:36:26;;;;;;;0.93;0.75;;;;;;;;;;4998652;28;20216;-85
2021/12/30 10:38:55;;;;;;;0.60;0.60;;;;;;;;;;4998581;28;20214;-85
2021/12/30 10:41:25;;;;;;;0.52;0.52;;;;;;;;;;4980731;28;20192;-84
2021/12/30 10:43:57;;;;;;;0.40;0.40;;;;;;;;;;4998801;28;20287;-85
2021/12/30 10:46:27;;;;;;;0.50;0.50;;;;;;;;;;4999059;28;20311;-84
2021/12/30 10:48:59;;;;;;;1.08;1.08;;;;;;;;;;4998446;28;20627;-85
2021/12/30 10:51:35;;;;;;;0.95;0.60;;;;;;;;;;4998591;28;20180;-85
2021/12/30 10:54:14;;;;;;;0.30;0.30;;;;;;;;;;4999029;28;20227;-85
2021/12/30 10:56:44;;;;;;;0.50;0.50;;;;;;;;;;4998850;28;20229;-85
2021/12/30 10:59:17;;;;;;;0.40;0.40;;;;;;;;;;4998989;28;20668;-85
2021/12/30 11:01:50;;;;;;;0.47;0.47;;;;;;;;;;4988319;28;20199;-85
2021/12/30 11:04:19;;;;;;;0.40;0.40;;;;;;;;;;4992031;28;20195;-85
2021/12/30 11:06:48;;;;;;;0.50;0.50;;;;;;;;;;4995898;28;20220;-85
2021/12/30 11:09:20;;;;;;;0.40;0.40;;;;;;;;;;4993655;28;20199;-84
2021/12/30 11:11:51;;;;;;;0.45;0.45;;;;;;;;;;4989498;28;20191;-84
2021/12/30 11:14:22;;;;;;;0.57;0.57;;;;;;;;;;4992593;28;20199;-84
2021/12/30 11:17:02;;;;;;;0.57;0.57;;;;;;;;;;4995070;28;20233;-84
2021/12/30 11:19:31;;;;;;;0.50;0.50;;;;;;;;;;4990879;28;20588;-85
2021/12/30 11:22:01;;;;;;;0.50;0.50;;;;;;;;;;4986861;28;20196;-85
2021/12/30 11:24:31;;;;;;;0.43;0.43;;;;;;;;;;4982937;28;20205;-84
2021/12/30 11:26:59;;;;;;;0.50;0.50;;;;;;;;;;4984816;28;20230;-84
2021/12/30 11:29:27;;;;;;;0.40;0.40;;;;;;;;;;4991407;28;20196;-85
2021/12/30 11:31:56;;;;;;;0.52;0.52;;;;;;;;;;4997517;28;20671;-84
2021/12/30 11:34:25;;;;;;;0.73;0.60;;;;;;;;;;4984968;28;20686;-84
2021/12/30 11:36:53;;;;;;;0.60;0.60;;;;;;;;;;4987086;28;20219;-85
2021/12/30 11:39:24;;;;;;;0.28;0.28;;;;;;;;;;4991817;28;20227;-85
2021/12/30 11:41:59;;;;;;;0.38;0.38;;;;;;;;;;4988004;28;20203;-84
2021/12/30 11:44:40;;;;;;;0.75;0.40;;;;;;;;;;4994513;28;20190;-84
2021/12/30 11:47:31;;;;;;;0.85;0.70;;;;;;;;;;4989129;28;20223;-84
2021/12/30 11:50:03;;;;;;;0.40;0.40;;;;;;;;;;4984399;28;20259;-84
2021/12/30 11:53:03;;;;;;;0.30;0.30;;;;;;;;;;4981666;28;20283;-84
2021/12/30 11:56:00;;;;;;;0.40;0.40;;;;;;;;;;4961546;28;20229;-84
2021/12/30 11:58:48;;;;;;;1.38;0.50;;;;;;;;;;4974559;28;20212;-84
2021/12/30 12:01:42;;;;;;;0.30;0.30;;;;;;;;;;4977536;28;20193;-84
2021/12/30 12:04:16;;;;;;;0.30;0.30;;;;;;;;;;4977588;28;20204;-84
2021/12/30 12:06:54;;;;;;;0.30;0.30;;;;;;;;;;4974426;28;20217;-84
2021/12/30 12:09:42;;;;;;;0.30;0.30;;;;;;;;;;4973292;28;20196;-84
2021/12/30 12:12:16;;;;;;;0.35;0.35;;;;;;;;;;4958407;29;20295;-84
2021/12/30 12:14:59;;;;;;;0.40;0.40;;;;;;;;;;4957892;29;20556;-84
2021/12/30 12:17:37;;;;;;;2.63;2.17;;;;;;;;;;4973072;28;20316;-84
2021/12/30 12:20:19;;;;;;;1.42;1.33;;;;;;;;;;4977839;28;20216;-84
2021/12/30 12:22:48;;;;;;;1.67;1.50;;;;;;;;;;4976615;28;20227;-83
2021/12/30 12:25:18;;;;;;;3.42;3.08;;;;;;;;;;4977231;28;20214;-84
2021/12/30 12:27:49;;;;;;;1.40;1.30;;;;;;;;;;4968434;28;20232;-84
2021/12/30 12:30:30;;;;;;;1.10;1.10;;;;;;;;;;4977688;28;20185;-84
2021/12/30 12:32:58;;;;;;;1.50;1.27;;;;;;;;;;4976304;28;20232;-84
2021/12/30 12:35:34;;;;;;;0.88;0.88;;;;;;;;;;4975018;28;20195;-83
2021/12/30 12:38:09;;;;;;;0.77;0.77;;;;;;;;;;4977594;28;20655;-83
2021/12/30 12:40:43;;;;;;;0.70;0.70;;;;;;;;;;4977497;28;20208;-84
2021/12/30 12:43:26;;;;;;;0.90;0.90;;;;;;;;;;4973044;28;20232;-84
2021/12/30 12:46:00;;;;;;;0.30;0.30;;;;;;;;;;4976937;28;20247;-82
2021/12/30 12:48:35;;;;;;;0.52;0.52;;;;;;;;;;4975723;28;20663;-82
2021/12/30 12:51:08;;;;;;;0.80;0.80;;;;;;;;;;4974902;28;20188;-83
2021/12/30 12:53:47;;;;;;;0.70;0.70;;;;;;;;;;4987621;28;20597;-81
2021/12/30 12:56:20;;;;;;;0.70;0.70;;;;;;;;;;4996311;28;20223;-82
2021/12/30 12:58:50;;;;;;;0.68;0.68;;;;;;;;;;4975491;28;20573;-81
2021/12/30 13:01:21;;;;;;;0.60;0.60;;;;;;;;;;4984226;28;20579;-82
2021/12/30 13:03:50;;;;;;;0.88;0.70;;;;;;;;;;4996514;28;20195;-82
2021/12/30 13:06:20;;;;;;;0.75;0.75;;;;;;;;;;4996537;28;20706;-82
2021/12/30 13:08:52;;;;;;;0.50;0.50;;;;;;;;;;4996458;28;20199;-83
2021/12/30 13:11:31;;;;;;;0.50;0.50;;;;;;;;;;5000725;28;20271;-82
2021/12/30 13:14:01;;;;;;;0.73;0.73;;;;;;;;;;4988739;28;20267;-82
2021/12/30 13:16:33;;;;;;;0.68;0.68;;;;;;;;;;4996067;28;20588;-82
2021/12/30 13:19:11;;;;;;;0.52;0.52;;;;;;;;;;4996324;28;20191;-81
2021/12/30 13:21:52;;;;;;;0.50;0.50;;;;;;;;;;4996957;28;20219;-82
2021/12/30 13:24:39;;;;;;;0.73;0.73;;;;;;;;;;4976490;28;20204;-82
2021/12/30 13:27:20;;;;;;;0.63;0.63;;;;;;;;;;4976609;28;20228;-81
2021/12/30 13:29:52;;;;;;;0.80;0.80;;;;;;;;;;4984682;28;20725;-82
2021/12/30 13:32:24;;;;;;;1.02;1.02;;;;;;;;;;4996612;28;20192;-82
2021/12/30 13:35:03;;;;;;;0.80;0.80;;;;;;;;;;4996749;28;20184;-82
2021/12/30 13:37:34;;;;;;;0.90;0.90;;;;;;;;;;4999866;28;20263;-82
2021/12/30 13:40:06;;;;;;;1.10;1.10;;;;;;;;;;4989860;28;20215;-81
2021/12/30 13:42:34;;;;;;;1.13;1.10;;;;;;;;;;4999037;28;20199;-82
2021/12/30 13:45:04;;;;;;;1.40;1.30;;;;;;;;;;4999903;28;20203;-84
2021/12/30 13:47:38;;;;;;;1.67;1.00;;;;;;;;;;4999546;28;20232;-81
2021/12/30 13:50:11;;;;;;;1.30;1.20;;;;;;;;;;4999521;28;20196;-81
2021/12/30 13:52:41;;;;;;;1.10;1.08;;;;;;;;;;4999130;28;20228;-82
2021/12/30 13:55:24;;;;;;;1.10;1.10;;;;;;;;;;4999489;28;20200;-81
2021/12/30 13:58:09;;;;;;;1.15;1.10;;;;;;;;;;4997866;28;20227;-82
2021/12/30 14:00:42;;;;;;;1.02;1.02;;;;;;;;;;4998827;28;20825;-81
2021/12/30 14:03:11;;;;;;;1.30;1.20;;;;;;;;;;4998643;28;20190;-80
2021/12/30 14:05:40;;;;;;;1.10;1.00;;;;;;;;;;4999556;28;20184;-84
2021/12/30 14:08:10;;;;;;;1.50;1.40;;;;;;;;;;4999359;28;20203;-81
2021/12/30 14:10:53;;;;;;;1.05;1.05;;;;;;;;;;4998514;28;20184;-83
2021/12/30 14:13:34;;;;;;;1.00;1.00;;;;;;;;;;4998873;28;20192;-82
2021/12/30 14:16:01;;;;;;;1.10;1.10;;;;;;;;;;4998968;28;20741;-83
2021/12/30 14:18:31;;;;;;;0.80;0.80;;;;;;;;;;4998944;28;20196;-83
2021/12/30 14:20:59;;;;;;;1.05;0.90;;;;;;;;;;4998910;28;20679;-83
2021/12/30 14:23:33;;;;;;;1.02;1.02;;;;;;;;;;4993585;28;20203;-84
2021/12/30 14:26:17;;;;;;;1.13;1.13;;;;;;;;;;4998718;28;20314;-84
2021/12/30 14:28:58;;;;;;;1.05;1.05;;;;;;;;;;4979993;28;20223;-84
2021/12/30 14:31:31;;;;;;;0.88;0.88;;;;;;;;;;4997144;28;20248;-84
2021/12/30 14:34:12;;;;;;;1.17;1.00;;;;;;;;;;4999331;28;20206;-83
2021/12/30 14:36:56;;;;;;;1.10;1.10;;;;;;;;;;4998973;28;20737;-84
2021/12/30 14:39:39;;;;;;;0.82;0.75;;;;;;;;;;4997797;28;20196;-84
2021/12/30 14:42:17;;;;;;;1.00;0.98;;;;;;;;;;4999700;28;20644;-84
2021/12/30 14:44:46;;;;;;;0.98;0.90;;;;;;;;;;4994870;28;20596;-83
2021/12/30 14:47:18;;;;;;;0.93;0.93;;;;;;;;;;4979769;28;20228;-83
2021/12/30 14:50:02;;;;;;;0.70;0.70;;;;;;;;;;4995012;23;20236;-90
2021/12/30 14:52:49;;;;;;;0.70;0.70;;;;;;;;;;4974847;28;20284;-89
2021/12/30 14:55:20;;;;;;;0.80;0.80;;;;;;;;;;4974763;28;20200;-90
2021/12/30 14:57:55;;;;;;;0.95;0.95;;;;;;;;;;4974582;28;20238;-89
2021/12/30 15:00:28;;;;;;;0.95;0.95;;;;;;;;;;4988683;28;20219;-90
2021/12/30 15:03:03;;;;;;;1.15;1.05;;;;;;;;;;4994920;28;20196;-87
2021/12/30 15:05:35;;;;;;;0.80;0.80;;;;;;;;;;4994792;28;20183;-88
2021/12/30 15:08:05;;;;;;;0.90;0.90;;;;;;;;;;4995075;28;20208;-87
2021/12/30 15:10:35;;;;;;;1.08;1.00;;;;;;;;;;4994989;28;20223;-88
2021/12/30 15:13:30;;;;;;;0.80;0.80;;;;;;;;;;4994792;28;20184;-87
2021/12/30 15:16:06;;;;;;;1.20;1.20;;;;;;;;;;4994757;28;20657;-88
2021/12/30 15:18:35;;;;;;;0.98;0.98;;;;;;;;;;4994909;28;20187;-87
2021/12/30 15:21:08;;;;;;;2.08;1.88;;;;;;;;;;4994647;28;20704;-88
2021/12/30 15:23:37;;;;;;;1.00;1.00;;;;;;;;;;4994936;28;20206;-88
2021/12/30 15:26:12;;;;;;;1.92;1.33;;;;;;;;;;4994411;28;20307;-87
2021/12/30 15:29:06;;;;;;;0.90;0.90;;;;;;;;;;4995269;28;20191;-87
2021/12/30 15:31:34;;;;;;;0.73;0.73;;;;;;;;;;4994977;28;20187;-87
2021/12/30 15:34:42;;;;;;;1.05;0.90;;;;;;;;;;4995145;28;20199;-87
2021/12/30 15:37:51;;;;;;;1.23;1.17;;;;;;;;;;4994663;28;20184;-89
2021/12/30 15:40:50;;;;;;;0.88;0.88;;;;;;;;;;4994375;28;20251;-88
2021/12/30 15:43:21;;;;;;;0.90;0.90;;;;;;;;;;4994476;28;20300;-88
2021/12/30 15:46:04;;;;;;;0.80;0.80;;;;;;;;;;4993972;28;20231;-88
2021/12/30 15:48:33;;;;;;;0.70;0.70;;;;;;;;;;4974800;28;20212;-88
2021/12/30 15:51:15;;;;;;;1.00;1.00;;;;;;;;;;4974329;28;20231;-89
2021/12/30 15:53:43;;;;;;;1.25;1.20;;;;;;;;;;4974494;28;20211;-88
2021/12/30 15:56:48;;;;;;;2.10;1.90;;;;;;;;;;4974404;28;20631;-87
2021/12/30 15:59:19;;;;;;;1.73;1.63;;;;;;;;;;4979020;28;20215;-88
2021/12/30 16:02:09;;;;;;;2.15;2.03;;;;;;;;;;4993922;28;20222;-88
2021/12/30 16:04:59;;;;;;;1.98;1.83;;;;;;;;;;4993557;28;20717;-88
2021/12/30 16:08:02;;;;;;;1.20;1.20;;;;;;;;;;4993813;28;20282;-88
2021/12/30 16:10:32;;;;;;;1.20;1.20;;;;;;;;;;4974251;28;20223;-88
2021/12/30 16:13:58;;;;;;;1.00;1.00;;;;;;;;;;4986112;28;20196;-88
2021/12/30 16:16:44;;;;;;;0.80;0.80;;;;;;;;;;4993470;28;20192;-89
2021/12/30 16:19:22;;;;;;;0.90;0.90;;;;;;;;;;4976507;28;20289;-88
2021/12/30 16:21:55;;;;;;;1.00;0.90;;;;;;;;;;4993306;28;20574;-89
2021/12/30 16:24:42;;;;;;;0.70;0.70;;;;;;;;;;4993853;28;20717;-89
2021/12/30 16:27:23;;;;;;;0.70;0.70;;;;;;;;;;4993792;28;20216;-88
2021/12/30 16:30:31;;;;;;;0.90;0.90;;;;;;;;;;4993551;28;20777;-89
2021/12/30 16:33:12;;;;;;;0.90;0.90;;;;;;;;;;4993666;28;20664;-88
2021/12/30 16:36:08;;;;;;;0.75;0.75;;;;;;;;;;4993313;28;20196;-88
2021/12/30 16:38:44;;;;;;;0.90;0.90;;;;;;;;;;4993478;28;20192;-88
2021/12/30 16:41:36;;;;;;;1.00;0.95;;;;;;;;;;4993207;28;20188;-88
2021/12/30 16:44:14;;;;;;;0.90;0.90;;;;;;;;;;4993513;28;20196;-88
2021/12/30 16:47:16;;;;;;;1.10;1.00;;;;;;;;;;4993318;28;20290;-88
2021/12/30 16:49:43;;;;;;;1.00;1.00;;;;;;;;;;4991338;28;20238;-88
2021/12/30 16:52:19;;;;;;;1.13;1.10;;;;;;;;;;4993388;28;20207;-89
2021/12/30 16:54:47;;;;;;;1.05;1.00;;;;;;;;;;4993106;28;20183;-90
2021/12/30 16:57:25;;;;;;;0.98;0.98;;;;;;;;;;4993029;28;20295;-88
2021/12/30 17:00:00;;;;;;;1.10;1.10;;;;;;;;;;4993049;28;20235;-88
2021/12/30 17:02:30;;;;;;;0.80;0.80;;;;;;;;;;4993122;28;20253;-88
2021/12/30 17:05:09;;;;;;;1.08;1.08;;;;;;;;;;4993230;28;20315;-88